Time;durP1;ratioP1;P1;durP2;ratioP2;P2;SDS_P1;SDS_P2;PMS_P1;PMS_P2;Temp;Humidity;BMP_temperature;BMP_pressure;BME280_temperature;BME280_humidity;BME280_pressure;Samples;Min_cycle;Max_cycle;Signal;HPM_P1;HPM_P2
2022/05/15 00:02:45;;;;;;;9.98;4.10;;;12.60;82.20;;;;;;5011416;28;20535;-54
2022/05/15 00:05:11;;;;;;;15.25;4.55;;;12.60;82.20;;;;;;5015333;28;20116;-55
2022/05/15 00:07:37;;;;;;;11.85;4.63;;;12.60;82.20;;;;;;5021843;28;20072;-54
2022/05/15 00:10:05;;;;;;;13.55;4.85;;;12.70;82.00;;;;;;5015326;28;20050;-55
2022/05/15 00:12:31;;;;;;;14.10;4.18;;;12.70;81.80;;;;;;5009686;28;20133;-55
2022/05/15 00:14:56;;;;;;;19.48;4.10;;;12.70;82.10;;;;;;5017008;28;20133;-55
2022/05/15 00:17:22;;;;;;;16.40;4.53;;;12.70;82.40;;;;;;5011344;28;20068;-56
2022/05/15 00:19:48;;;;;;;9.98;3.60;;;12.70;82.20;;;;;;5011184;28;20076;-55
2022/05/15 00:22:13;;;;;;;16.42;3.92;;;12.70;82.30;;;;;;5025948;28;20447;-54
2022/05/15 00:24:39;;;;;;;9.40;3.53;;;12.60;82.30;;;;;;5001152;28;20025;-54
2022/05/15 00:27:05;;;;;;;11.10;4.15;;;12.60;82.60;;;;;;5021766;28;20029;-54
2022/05/15 00:29:31;;;;;;;10.88;6.35;;;12.60;82.60;;;;;;5017944;28;20065;-54
2022/05/15 00:31:57;;;;;;;12.77;3.83;;;12.60;82.90;;;;;;5025334;28;20061;-56
2022/05/15 00:34:23;;;;;;;8.65;3.60;;;12.60;83.00;;;;;;5020007;28;20405;-54
2022/05/15 00:36:48;;;;;;;8.48;3.72;;;12.60;83.10;;;;;;5029073;28;20078;-54
2022/05/15 00:39:14;;;;;;;15.13;4.63;;;12.60;83.00;;;;;;5011104;28;20030;-53
2022/05/15 00:41:40;;;;;;;9.93;3.67;;;12.60;82.70;;;;;;5015116;28;20018;-54
2022/05/15 00:44:08;;;;;;;9.00;3.53;;;12.70;83.00;;;;;;5010101;28;20046;-54
2022/05/15 00:46:37;;;;;;;17.60;3.50;;;12.80;82.50;;;;;;5019867;28;20036;-53
2022/05/15 00:49:07;;;;;;;10.38;3.20;;;12.80;81.80;;;;;;5021523;28;20048;-56
2022/05/15 00:52:11;;;;;;;12.63;3.67;;;12.90;81.70;;;;;;5009608;28;20030;-53
2022/05/15 00:54:43;;;;;;;11.25;3.20;;;12.90;81.50;;;;;;5011873;28;20379;-53
2022/05/15 00:57:33;;;;;;;12.02;3.55;;;13.00;81.20;;;;;;5016624;28;20030;-50
2022/05/15 01:00:09;;;;;;;7.22;2.65;;;13.10;81.70;;;;;;5008859;28;20063;-53
2022/05/15 01:02:43;;;;;;;10.57;2.53;;;13.30;81.10;;;;;;5015594;28;20065;-50
2022/05/15 01:05:49;;;;;;;7.28;3.08;;;13.40;82.30;;;;;;5015609;28;20121;-52
2022/05/15 01:08:15;;;;;;;15.77;3.53;;;13.40;83.10;;;;;;5008831;28;20034;-54
2022/05/15 01:10:44;;;;;;;9.27;2.95;;;13.40;84.70;;;;;;5008500;28;20018;-53
2022/05/15 01:13:11;;;;;;;11.48;3.65;;;13.40;85.80;;;;;;5002445;28;20135;-51
2022/05/15 01:15:38;;;;;;;14.65;3.75;;;13.40;86.30;;;;;;5004130;28;20045;-53
2022/05/15 01:18:05;;;;;;;12.07;3.80;;;13.30;88.00;;;;;;5014048;28;20460;-53
2022/05/15 01:20:31;;;;;;;15.20;4.00;;;13.30;89.20;;;;;;5006943;28;20038;-53
2022/05/15 01:22:59;;;;;;;12.32;4.57;;;13.20;90.10;;;;;;5007717;28;20038;-54
2022/05/15 01:25:31;;;;;;;12.02;3.58;;;13.30;89.50;;;;;;5004138;28;20503;-55
2022/05/15 01:28:20;;;;;;;15.07;4.28;;;13.20;90.40;;;;;;5009878;28;20494;-54
2022/05/15 01:30:49;;;;;;;18.95;4.03;;;13.20;91.00;;;;;;5002910;28;20065;-55
2022/05/15 01:33:15;;;;;;;12.50;3.92;;;13.20;88.40;;;;;;5009344;28;20056;-55
2022/05/15 01:35:40;;;;;;;17.17;3.92;;;13.30;90.10;;;;;;5012968;28;20062;-55
2022/05/15 01:38:07;;;;;;;17.80;4.57;;;13.30;90.30;;;;;;5004748;28;20010;-54
2022/05/15 01:40:34;;;;;;;13.02;4.32;;;13.40;90.60;;;;;;5009138;28;20070;-53
2022/05/15 01:43:00;;;;;;;11.77;3.50;;;13.40;90.90;;;;;;5014251;28;20128;-54
2022/05/15 01:45:26;;;;;;;18.15;4.78;;;13.50;87.80;;;;;;5014099;28;20545;-54
2022/05/15 01:47:52;;;;;;;20.00;5.28;;;13.50;88.60;;;;;;5010127;28;20129;-55
2022/05/15 01:50:18;;;;;;;11.05;4.35;;;13.60;89.30;;;;;;5009694;28;20061;-54
2022/05/15 01:52:45;;;;;;;13.10;4.43;;;13.60;90.00;;;;;;5015992;28;20030;-55
2022/05/15 01:55:12;;;;;;;15.35;4.28;;;13.60;88.90;;;;;;5009769;28;20026;-55
2022/05/15 01:57:37;;;;;;;15.93;4.57;;;13.60;89.70;;;;;;5010341;28;20030;-54
2022/05/15 02:00:06;;;;;;;13.90;4.80;;;13.60;89.80;;;;;;5020491;28;20508;-53
2022/05/15 02:02:32;;;;;;;13.15;4.97;;;13.60;89.80;;;;;;5006286;28;20113;-54
2022/05/15 02:04:57;;;;;;;13.32;4.22;;;13.60;88.60;;;;;;5005618;28;20218;-55
2022/05/15 02:07:24;;;;;;;16.83;4.07;;;13.60;87.60;;;;;;5011844;28;20042;-55
2022/05/15 02:09:50;;;;;;;12.38;4.03;;;13.70;85.60;;;;;;5009747;28;20389;-54
2022/05/15 02:12:15;;;;;;;13.02;3.58;;;13.70;85.20;;;;;;5011345;28;20113;-54
2022/05/15 02:14:41;;;;;;;11.55;4.35;;;13.80;83.30;;;;;;5008111;28;20022;-52
2022/05/15 02:17:07;;;;;;;9.60;3.17;;;13.80;85.10;;;;;;5009463;28;20025;-54
2022/05/15 02:19:33;;;;;;;14.45;4.10;;;13.70;85.40;;;;;;5009323;28;20029;-54
2022/05/15 02:21:59;;;;;;;8.85;4.00;;;13.70;84.30;;;;;;5015644;28;20498;-55
2022/05/15 02:24:25;;;;;;;12.70;3.60;;;13.80;83.20;;;;;;5008054;28;20022;-54
2022/05/15 02:26:51;;;;;;;15.55;3.80;;;13.90;81.80;;;;;;5011304;28;20044;-55
2022/05/15 02:29:17;;;;;;;11.43;3.90;;;14.00;80.90;;;;;;5017863;28;20034;-55
2022/05/15 02:31:43;;;;;;;9.93;4.40;;;13.90;81.70;;;;;;5007404;28;20037;-54
2022/05/15 02:34:08;;;;;;;20.05;5.18;;;13.90;81.90;;;;;;5013361;28;20148;-54
2022/05/15 02:36:34;;;;;;;8.15;4.00;;;13.80;82.30;;;;;;5007627;28;20033;-55
2022/05/15 02:39:00;;;;;;;13.98;4.40;;;13.80;83.30;;;;;;5010724;28;20030;-55
2022/05/15 02:41:26;;;;;;;15.32;5.47;;;13.70;83.50;;;;;;5007869;28;20033;-56
2022/05/15 02:43:52;;;;;;;15.90;4.57;;;13.60;86.00;;;;;;5017530;28;20456;-54
2022/05/15 02:46:18;;;;;;;14.45;4.85;;;13.60;84.30;;;;;;5011662;28;20129;-55
2022/05/15 02:51:29;;;;;;;13.55;4.70;;;13.60;84.60;;;;;;5010233;28;20032;-54
2022/05/15 02:53:55;;;;;;;15.82;4.85;;;13.60;83.30;;;;;;5014872;28;20041;-52
2022/05/15 02:56:40;;;;;;;14.43;5.13;;;13.60;82.20;;;;;;5007563;28;20022;-53
2022/05/15 02:59:06;;;;;;;10.60;4.40;;;13.60;82.00;;;;;;5009213;28;20096;-53
2022/05/15 03:01:33;;;;;;;10.50;5.10;;;13.70;82.50;;;;;;5012845;28;20022;-55
2022/05/15 03:03:59;;;;;;;13.65;6.45;;;13.60;83.50;;;;;;5015482;28;20120;-53
2022/05/15 03:06:25;;;;;;;19.25;4.97;;;13.60;82.10;;;;;;5007185;28;20031;-55
2022/05/15 03:08:52;;;;;;;17.08;4.95;;;13.60;82.30;;;;;;5005338;28;20045;-52
2022/05/15 03:11:18;;;;;;;13.95;4.43;;;13.60;82.30;;;;;;5010346;28;20029;-54
2022/05/15 03:13:44;;;;;;;18.73;4.80;;;13.60;82.00;;;;;;5020698;28;20419;-54
2022/05/15 03:16:11;;;;;;;16.23;5.90;;;13.60;82.60;;;;;;5011379;28;20037;-54
2022/05/15 03:18:42;;;;;;;16.50;5.68;;;13.60;82.60;;;;;;5007678;28;20529;-55
2022/05/15 03:21:08;;;;;;;16.60;5.33;;;13.60;82.50;;;;;;5009025;28;20393;-54
2022/05/15 03:23:34;;;;;;;19.50;5.63;;;13.60;82.90;;;;;;5014794;28;20034;-53
2022/05/15 03:25:59;;;;;;;16.55;5.32;;;13.50;82.10;;;;;;5010191;28;20022;-56
2022/05/15 03:28:25;;;;;;;15.93;5.82;;;13.40;82.40;;;;;;5009636;28;20050;-54
2022/05/15 03:30:51;;;;;;;14.75;4.43;;;13.40;83.10;;;;;;5014085;28;20022;-55
2022/05/15 03:33:16;;;;;;;10.65;4.70;;;13.40;83.60;;;;;;5012629;28;20394;-55
2022/05/15 03:35:42;;;;;;;12.80;5.78;;;13.40;84.90;;;;;;5012056;28;20030;-53
2022/05/15 03:38:09;;;;;;;16.40;5.03;;;13.30;85.20;;;;;;5013936;28;20030;-51
2022/05/15 03:40:35;;;;;;;18.17;5.85;;;13.30;85.70;;;;;;5011015;28;20112;-54
2022/05/15 03:43:01;;;;;;;11.93;5.20;;;13.20;87.70;;;;;;5011261;28;20041;-55
2022/05/15 03:45:27;;;;;;;14.73;5.22;;;13.20;86.20;;;;;;5019714;28;20548;-55
2022/05/15 03:47:54;;;;;;;15.90;6.70;;;13.20;87.80;;;;;;5019781;28;20035;-54
2022/05/15 03:50:27;;;;;;;13.70;5.38;;;13.10;86.70;;;;;;5016691;28;20058;-54
2022/05/15 03:52:53;;;;;;;12.95;5.10;;;13.00;87.20;;;;;;5010928;28;20034;-53
2022/05/15 03:55:19;;;;;;;14.45;6.10;;;13.00;87.50;;;;;;5010934;28;20025;-52
2022/05/15 03:57:46;;;;;;;15.80;5.72;;;12.90;87.80;;;;;;5011095;28;20387;-54
2022/05/15 04:00:16;;;;;;;16.67;5.72;;;12.80;88.60;;;;;;4998032;28;20064;-54
2022/05/15 04:02:42;;;;;;;14.50;6.05;;;12.80;88.90;;;;;;5010646;28;20509;-54
2022/05/15 04:05:09;;;;;;;13.75;5.88;;;12.70;90.50;;;;;;5018097;28;20057;-55
2022/05/15 04:07:43;;;;;;;12.73;5.70;;;12.70;90.70;;;;;;5010668;28;20041;-55
2022/05/15 04:10:10;;;;;;;20.50;6.95;;;12.60;90.20;;;;;;5019109;28;20045;-55
2022/05/15 04:12:36;;;;;;;14.35;6.07;;;12.60;90.30;;;;;;5017177;28;20038;-55
2022/05/15 04:15:02;;;;;;;10.25;5.90;;;12.50;90.50;;;;;;5016914;28;20083;-55
2022/05/15 04:17:28;;;;;;;13.52;6.05;;;12.40;90.40;;;;;;5009337;28;20057;-55
2022/05/15 04:19:53;;;;;;;14.27;5.93;;;12.40;90.60;;;;;;5010913;28;20452;-53
2022/05/15 04:22:19;;;;;;;16.73;6.18;;;12.30;90.90;;;;;;5010348;28;20037;-55
2022/05/15 04:24:44;;;;;;;13.30;6.03;;;12.20;91.20;;;;;;5014475;28;20481;-55
2022/05/15 04:27:11;;;;;;;13.43;5.45;;;12.10;91.80;;;;;;5023946;28;20068;-55
2022/05/15 04:29:37;;;;;;;14.65;6.18;;;12.10;92.00;;;;;;5027199;28;20099;-53
2022/05/15 04:32:03;;;;;;;15.48;6.10;;;12.10;92.10;;;;;;5031517;28;20076;-56
2022/05/15 04:34:29;;;;;;;22.02;6.78;;;12.00;92.10;;;;;;5015881;28;20034;-55
2022/05/15 04:36:55;;;;;;;16.63;7.05;;;11.90;92.30;;;;;;5028256;28;20029;-54
2022/05/15 04:39:22;;;;;;;10.90;5.65;;;11.90;92.30;;;;;;5004313;28;20037;-54
2022/05/15 04:41:48;;;;;;;17.10;6.43;;;12.10;92.40;;;;;;5027405;28;20034;-54
2022/05/15 04:44:14;;;;;;;16.23;6.13;;;12.10;92.10;;;;;;5021153;28;20053;-53
2022/05/15 04:46:40;;;;;;;20.55;6.60;;;12.20;91.80;;;;;;5025620;28;20037;-54
2022/05/15 04:49:06;;;;;;;16.42;6.85;;;12.30;91.50;;;;;;5021925;28;20041;-51
2022/05/15 04:51:32;;;;;;;15.10;6.15;;;12.40;91.30;;;;;;5010968;28;20470;-55
2022/05/15 04:53:59;;;;;;;17.73;6.35;;;12.50;91.10;;;;;;5018192;28;20037;-55
2022/05/15 04:56:25;;;;;;;12.77;5.82;;;12.50;91.10;;;;;;5014605;28;20035;-56
2022/05/15 04:58:51;;;;;;;14.43;5.68;;;12.60;90.90;;;;;;5028092;28;20036;-62
2022/05/15 05:01:18;;;;;;;20.30;6.32;;;12.70;90.70;;;;;;5000329;28;20018;-52
2022/05/15 05:03:44;;;;;;;17.63;5.88;;;12.80;90.60;;;;;;5011667;28;20508;-55
2022/05/15 05:06:11;;;;;;;18.00;5.55;;;12.80;90.60;;;;;;5016605;28;20026;-56
2022/05/15 05:08:36;;;;;;;16.63;6.13;;;12.80;90.60;;;;;;5002240;28;20041;-54
2022/05/15 05:11:02;;;;;;;17.52;5.72;;;12.80;90.10;;;;;;5013419;28;20026;-52
2022/05/15 05:13:28;;;;;;;14.32;4.90;;;12.90;90.30;;;;;;5008167;28;20409;-54
2022/05/15 05:15:54;;;;;;;14.57;5.93;;;12.90;89.90;;;;;;5021671;28;20048;-57
2022/05/15 05:18:19;;;;;;;15.13;5.57;;;13.00;88.10;;;;;;5008781;28;20026;-54
2022/05/15 05:20:46;;;;;;;13.30;5.53;;;13.10;88.20;;;;;;5018496;28;20478;-55
2022/05/15 05:23:12;;;;;;;19.52;5.63;;;13.20;88.40;;;;;;5009994;28;20028;-55
2022/05/15 05:25:38;;;;;;;22.52;6.35;;;13.20;88.40;;;;;;5012429;28;20061;-55
2022/05/15 05:28:04;;;;;;;14.93;5.72;;;13.30;88.60;;;;;;5013854;28;20089;-54
2022/05/15 05:30:31;;;;;;;15.88;5.47;;;13.30;87.80;;;;;;5010350;28;20089;-52
2022/05/15 05:32:57;;;;;;;24.27;5.85;;;13.40;87.30;;;;;;5019787;28;20057;-55
2022/05/15 05:35:25;;;;;;;15.52;6.22;;;13.50;87.40;;;;;;5013143;28;20057;-55
2022/05/15 05:37:51;;;;;;;15.45;5.78;;;13.40;88.80;;;;;;5010533;28;20034;-54
2022/05/15 05:40:18;;;;;;;21.15;6.28;;;13.40;89.30;;;;;;5008234;28;20022;-54
2022/05/15 05:42:43;;;;;;;14.00;5.65;;;13.30;88.90;;;;;;5010408;28;20049;-53
2022/05/15 05:45:10;;;;;;;16.30;5.35;;;13.30;89.20;;;;;;5015101;28;20038;-54
2022/05/15 05:47:36;;;;;;;13.70;5.63;;;13.30;89.20;;;;;;5016743;28;20041;-54
2022/05/15 05:50:04;;;;;;;14.40;7.03;;;13.40;89.30;;;;;;5009875;28;20069;-53
2022/05/15 05:52:29;;;;;;;19.67;5.70;;;13.40;89.00;;;;;;5016270;28;20116;-55
2022/05/15 05:54:55;;;;;;;20.85;5.88;;;13.40;87.70;;;;;;5016720;28;20071;-56
2022/05/15 05:57:21;;;;;;;13.23;5.55;;;13.50;87.90;;;;;;5007968;28;20026;-55
2022/05/15 05:59:47;;;;;;;15.00;5.82;;;13.50;89.50;;;;;;5009158;28;20026;-55
2022/05/15 06:02:12;;;;;;;15.38;5.30;;;13.50;90.20;;;;;;5010028;28;20401;-55
2022/05/15 06:04:44;;;;;;;12.60;5.53;;;13.50;90.30;;;;;;5016624;28;20034;-56
2022/05/15 06:07:16;;;;;;;17.27;6.40;;;13.40;90.50;;;;;;5010116;28;20394;-53
2022/05/15 06:09:45;;;;;;;12.48;6.22;;;13.30;90.40;;;;;;5007513;28;20042;-52
2022/05/15 06:12:13;;;;;;;15.60;6.20;;;13.30;90.70;;;;;;5009587;28;20033;-55
2022/05/15 06:14:39;;;;;;;12.30;5.82;;;13.30;90.50;;;;;;5008311;28;20100;-54
2022/05/15 06:17:05;;;;;;;15.32;6.90;;;13.30;90.90;;;;;;5009068;28;20498;-55
2022/05/15 06:19:31;;;;;;;16.80;6.53;;;13.30;91.00;;;;;;5008894;28;20542;-54
2022/05/15 06:21:58;;;;;;;18.65;6.35;;;13.20;91.00;;;;;;5009863;28;20033;-53
2022/05/15 06:24:25;;;;;;;11.82;6.03;;;13.20;90.90;;;;;;5009052;28;20120;-52
2022/05/15 06:26:52;;;;;;;13.18;6.72;;;13.20;91.00;;;;;;5013233;28;20033;-55
2022/05/15 06:29:18;;;;;;;19.80;6.78;;;13.20;90.80;;;;;;5007567;28;20065;-54
2022/05/15 06:31:44;;;;;;;22.25;5.78;;;13.30;91.20;;;;;;5008135;28;20034;-53
2022/05/15 06:34:09;;;;;;;18.70;6.90;;;13.40;91.10;;;;;;5008900;28;20034;-53
2022/05/15 06:36:36;;;;;;;16.48;6.07;;;13.50;90.50;;;;;;5009830;28;20104;-51
2022/05/15 06:39:02;;;;;;;21.67;7.82;;;13.70;90.50;;;;;;5014050;28;20057;-56
2022/05/15 06:41:28;;;;;;;14.57;7.20;;;13.80;90.30;;;;;;5006646;28;20385;-55
2022/05/15 06:43:54;;;;;;;23.60;6.85;;;14.00;90.70;;;;;;5006646;28;20042;-54
2022/05/15 06:46:21;;;;;;;13.55;6.43;;;14.10;90.40;;;;;;5010560;28;20034;-54
2022/05/15 06:48:46;;;;;;;19.15;6.78;;;14.20;90.50;;;;;;5013021;28;20044;-54
2022/05/15 06:51:16;;;;;;;20.15;7.22;;;14.20;89.00;;;;;;5011233;28;20109;-56
2022/05/15 06:53:48;;;;;;;17.83;6.70;;;14.30;86.60;;;;;;5011909;28;20040;-53
2022/05/15 06:59:00;;;;;;;13.45;6.43;;;14.60;85.80;;;;;;5017477;28;20128;-55
2022/05/15 07:01:25;;;;;;;18.77;6.13;;;14.90;84.50;;;;;;5013463;28;20501;-52
2022/05/15 07:03:51;;;;;;;19.48;6.13;;;15.10;81.70;;;;;;5013138;28;20076;-55
2022/05/15 07:06:17;;;;;;;15.00;5.75;;;15.30;83.10;;;;;;5006810;28;20018;-54
2022/05/15 07:08:43;;;;;;;24.27;6.00;;;15.50;81.30;;;;;;5010333;28;20429;-55
2022/05/15 07:11:10;;;;;;;17.23;5.72;;;15.60;79.10;;;;;;5003677;28;20064;-53
2022/05/15 07:13:36;;;;;;;18.38;5.50;;;15.70;78.10;;;;;;5015646;28;20388;-54
2022/05/15 07:16:02;;;;;;;16.63;6.30;;;15.80;78.30;;;;;;5012442;28;20022;-55
2022/05/15 07:18:28;;;;;;;15.23;5.65;;;15.80;78.20;;;;;;5013052;28;20034;-54
2022/05/15 07:20:54;;;;;;;18.38;5.97;;;15.90;77.90;;;;;;5012720;28;20540;-54
2022/05/15 07:23:20;;;;;;;15.82;5.90;;;16.00;78.10;;;;;;5011057;28;20060;-55
2022/05/15 07:25:48;;;;;;;16.45;5.82;;;16.20;76.20;;;;;;5016653;28;20026;-52
2022/05/15 07:28:14;;;;;;;18.48;5.65;;;16.30;76.60;;;;;;5015739;28;20041;-54
2022/05/15 07:30:40;;;;;;;14.93;6.53;;;16.30;75.90;;;;;;5015994;28;20406;-54
2022/05/15 07:33:06;;;;;;;11.75;5.65;;;16.50;75.90;;;;;;5012569;28;20057;-54
2022/05/15 07:35:32;;;;;;;18.77;6.05;;;16.60;74.90;;;;;;5015341;28;20045;-54
2022/05/15 07:37:58;;;;;;;17.00;6.13;;;16.80;73.80;;;;;;5015283;28;20481;-55
2022/05/15 07:40:24;;;;;;;13.90;5.82;;;16.70;73.20;;;;;;5009864;28;20042;-54
2022/05/15 07:42:50;;;;;;;16.27;6.43;;;16.90;73.80;;;;;;5005088;28;20405;-54
2022/05/15 07:45:16;;;;;;;16.20;6.85;;;17.00;73.70;;;;;;5014903;28;20149;-54
2022/05/15 07:47:42;;;;;;;12.65;6.18;;;17.00;73.30;;;;;;5013400;28;20508;-53
2022/05/15 07:50:09;;;;;;;16.55;5.97;;;17.00;72.40;;;;;;5018998;28;20057;-55
2022/05/15 07:52:35;;;;;;;15.15;5.55;;;17.00;71.20;;;;;;5010967;28;20117;-54
2022/05/15 07:55:01;;;;;;;14.60;5.40;;;17.00;71.20;;;;;;5014451;28;20096;-52
2022/05/15 07:57:27;;;;;;;18.13;5.95;;;17.00;72.10;;;;;;5003537;28;20492;-55
2022/05/15 07:59:53;;;;;;;18.75;6.05;;;16.90;73.50;;;;;;5011441;28;20536;-53
2022/05/15 08:02:19;;;;;;;12.13;5.18;;;16.80;72.20;;;;;;5010080;28;20469;-54
2022/05/15 08:10:14;;;;;;;10.45;5.30;;;16.40;76.60;;;;;;5011493;28;20072;-54
2022/05/15 08:12:40;;;;;;;16.58;6.15;;;16.30;77.30;;;;;;5009250;28;20042;-53
2022/05/15 08:15:07;;;;;;;13.80;5.18;;;16.20;77.60;;;;;;5011211;28;20120;-54
2022/05/15 08:17:33;;;;;;;13.43;6.28;;;16.10;79.30;;;;;;5007523;28;20101;-55
2022/05/15 08:23:37;;;;;;;23.80;6.55;;;15.70;79.90;;;;;;5009142;28;20044;-54
2022/05/15 08:26:06;;;;;;;16.58;6.90;;;15.60;81.60;;;;;;4988171;28;20125;-54
2022/05/15 08:28:36;;;;;;;16.30;6.22;;;15.50;85.90;;;;;;4987021;28;20129;-54
2022/05/15 08:31:03;;;;;;;24.08;8.10;;;15.50;89.00;;;;;;4989780;28;20097;-53
2022/05/15 08:33:30;;;;;;;14.02;6.43;;;15.40;90.20;;;;;;4987733;28;20482;-51
2022/05/15 08:35:57;;;;;;;23.45;7.60;;;15.20;89.40;;;;;;4989970;28;20113;-55
2022/05/15 08:38:23;;;;;;;27.67;10.35;;;15.20;91.70;;;;;;4987072;28;20138;-53
2022/05/15 08:41:00;;;;;;;30.05;9.45;;;15.00;91.70;;;;;;4989431;28;20041;-54
2022/05/15 08:43:41;;;;;;;21.05;8.50;;;15.00;92.30;;;;;;4987653;28;20406;-56
2022/05/15 08:46:31;;;;;;;19.20;8.40;;;14.90;92.60;;;;;;4988622;28;20510;-55
2022/05/15 08:49:06;;;;;;;25.95;8.80;;;14.80;93.10;;;;;;4988701;28;20483;-54
2022/05/15 08:51:33;;;;;;;19.92;9.25;;;14.70;93.10;;;;;;4977674;28;20212;-55
2022/05/15 08:54:02;;;;;;;31.25;10.32;;;14.80;93.90;;;;;;4989134;28;20109;-53
2022/05/15 08:56:33;;;;;;;19.30;8.82;;;14.70;93.80;;;;;;4999650;28;20042;-55
2022/05/15 08:59:04;;;;;;;22.95;8.63;;;14.70;94.10;;;;;;5008647;28;20037;-54
2022/05/15 09:01:30;;;;;;;44.05;15.43;;;14.70;93.70;;;;;;5009394;28;20044;-54
2022/05/15 09:03:57;;;;;;;25.70;11.07;;;14.70;93.40;;;;;;5010979;28;20481;-53
2022/05/15 09:06:22;;;;;;;22.77;10.10;;;14.60;91.80;;;;;;5004475;28;20033;-55
2022/05/15 09:09:06;;;;;;;26.65;9.98;;;14.70;92.40;;;;;;5010883;28;20038;-55
2022/05/15 09:11:57;;;;;;;20.88;8.38;;;14.70;91.90;;;;;;5004496;28;20249;-53
2022/05/15 09:14:57;;;;;;;18.95;8.13;;;14.70;92.70;;;;;;4999146;28;20041;-54
2022/05/15 09:17:58;;;;;;;28.60;9.93;;;14.80;91.80;;;;;;5007963;28;20045;-54
2022/05/15 09:20:24;;;;;;;23.05;10.05;;;14.90;93.30;;;;;;5002021;28;20034;-54
2022/05/15 09:23:16;;;;;;;15.68;8.50;;;15.00;92.90;;;;;;5010022;28;20034;-54
2022/05/15 09:25:54;;;;;;;19.92;8.13;;;15.10;91.50;;;;;;4998887;28;20073;-53
2022/05/15 09:28:21;;;;;;;16.33;7.38;;;15.20;91.50;;;;;;4997648;28;20029;-55
2022/05/15 09:30:49;;;;;;;20.55;8.15;;;15.40;90.70;;;;;;5010360;28;20034;-54
2022/05/15 09:33:21;;;;;;;11.93;6.15;;;15.60;91.10;;;;;;5000796;28;20049;-58
2022/05/15 09:35:47;;;;;;;17.27;6.95;;;15.70;88.80;;;;;;5002742;28;20044;-55
2022/05/15 09:38:27;;;;;;;15.10;6.75;;;16.00;89.40;;;;;;5010363;28;20034;-54
2022/05/15 09:43:55;;;;;;;15.80;7.30;;;16.20;89.90;;;;;;5000628;28;20113;-55
2022/05/15 09:46:24;;;;;;;17.75;7.90;;;16.60;90.20;;;;;;5007751;28;20026;-55
2022/05/15 09:48:52;;;;;;;15.98;6.78;;;16.90;87.20;;;;;;5009404;28;20044;-60
2022/05/15 09:51:39;;;;;;;13.45;6.00;;;17.00;84.10;;;;;;5008329;28;20072;-62
2022/05/15 09:54:04;;;;;;;12.50;6.35;;;17.50;81.90;;;;;;4995943;28;20490;-56
2022/05/15 09:56:34;;;;;;;12.27;5.88;;;17.80;81.60;;;;;;5005671;28;20108;-62
2022/05/15 09:59:05;;;;;;;18.50;5.90;;;18.10;79.70;;;;;;5010096;28;20057;-60
2022/05/15 10:01:37;;;;;;;13.80;5.68;;;18.30;79.10;;;;;;5008236;28;20027;-56
2022/05/15 10:04:06;;;;;;;11.05;4.97;;;18.30;79.10;;;;;;5009553;28;20036;-58
2022/05/15 10:06:38;;;;;;;13.32;5.53;;;18.10;77.40;;;;;;5006190;28;20026;-58
2022/05/15 10:09:37;;;;;;;16.85;6.18;;;18.20;81.80;;;;;;5009834;28;20425;-56
2022/05/15 10:12:30;;;;;;;14.88;8.10;;;18.00;83.20;;;;;;5003904;28;20116;-57
2022/05/15 10:15:00;;;;;;;12.63;6.70;;;17.80;84.10;;;;;;5001764;28;20513;-57
2022/05/15 10:17:27;;;;;;;12.30;5.75;;;17.70;84.40;;;;;;4997748;28;20037;-56
2022/05/15 10:20:16;;;;;;;21.40;6.85;;;17.50;81.80;;;;;;5002995;28;20030;-56
2022/05/15 10:23:04;;;;;;;13.15;6.75;;;17.50;86.10;;;;;;4998694;28;20064;-55
2022/05/15 10:25:35;;;;;;;12.77;6.75;;;17.40;86.40;;;;;;4991550;28;20030;-56
2022/05/15 10:28:29;;;;;;;13.45;5.65;;;17.30;83.30;;;;;;5009298;28;20044;-57
2022/05/15 10:31:17;;;;;;;12.63;6.18;;;17.30;84.70;;;;;;5008824;28;20044;-57
2022/05/15 10:34:09;;;;;;;11.95;7.22;;;17.20;81.50;;;;;;4999534;28;20038;-57
2022/05/15 10:36:37;;;;;;;;;;;17.20;83.20;;;;;;4999979;28;20030;-56
2022/05/15 10:39:36;;;;;;;16.13;6.88;;;17.20;86.40;;;;;;5012499;28;19913;-57
2022/05/15 10:42:14;;;;;;;14.35;6.68;;;17.10;87.20;;;;;;4991598;28;20045;-57
2022/05/15 10:44:57;;;;;;;13.52;6.18;;;17.10;87.30;;;;;;4991882;28;21147;-56
2022/05/15 10:47:28;;;;;;;10.10;5.78;;;17.00;83.90;;;;;;4982510;28;20076;-57
2022/05/15 10:50:18;;;;;;;13.40;5.70;;;17.10;83.90;;;;;;4998826;28;20521;-57
2022/05/15 10:59:21;;;;;;;12.93;5.05;;;17.00;88.40;;;;;;5000107;28;20121;-58
2022/05/15 11:02:21;;;;;;;11.48;4.90;;;17.00;87.70;;;;;;4990086;28;20418;-56
2022/05/15 11:04:53;;;;;;;13.40;5.47;;;17.00;88.20;;;;;;4991533;28;20040;-58
2022/05/15 11:07:38;;;;;;;11.55;5.43;;;16.90;89.40;;;;;;5007452;28;20529;-55
2022/05/15 11:10:27;;;;;;;16.00;6.75;;;16.90;84.60;;;;;;4997068;28;20077;-57
2022/05/15 11:13:04;;;;;;;15.70;6.10;;;17.10;88.90;;;;;;5001342;28;20410;-55
2022/05/15 11:15:36;;;;;;;17.13;5.22;;;17.10;89.20;;;;;;4998656;28;20508;-57
2022/05/15 11:18:23;;;;;;;19.08;6.88;;;17.10;84.90;;;;;;4980920;28;20100;-57
2022/05/15 11:20:54;;;;;;;14.23;5.90;;;17.30;88.80;;;;;;5004087;28;20026;-57
2022/05/15 11:23:29;;;;;;;18.88;7.35;;;17.30;90.10;;;;;;5002129;28;20127;-57
2022/05/15 11:26:24;;;;;;;15.40;6.88;;;17.20;91.20;;;;;;4997410;28;20107;-58
2022/05/15 11:28:54;;;;;;;16.30;6.70;;;17.10;91.40;;;;;;5007527;28;20049;-57
2022/05/15 11:31:32;;;;;;;19.95;7.65;;;17.20;91.80;;;;;;5012406;28;20057;-58
2022/05/15 11:34:06;;;;;;;17.42;7.20;;;17.10;91.40;;;;;;4999698;28;20038;-58
2022/05/15 11:36:49;;;;;;;13.23;6.97;;;17.10;92.30;;;;;;5001729;28;20030;-58
2022/05/15 11:39:14;;;;;;;18.00;6.97;;;17.10;92.40;;;;;;5013575;28;20424;-58
2022/05/15 11:41:43;;;;;;;11.75;5.57;;;17.00;92.30;;;;;;5010649;28;20846;-57
2022/05/15 11:44:31;;;;;;;16.13;6.97;;;16.90;90.60;;;;;;4999929;28;20049;-58
2022/05/15 11:46:59;;;;;;;19.23;7.45;;;16.90;91.60;;;;;;5013273;28;20142;-58
2022/05/15 11:49:39;;;;;;;15.75;6.70;;;16.90;92.20;;;;;;5009493;28;20077;-59
2022/05/15 11:52:14;;;;;;;22.38;8.13;;;16.80;92.50;;;;;;5010916;28;20022;-57
2022/05/15 11:54:43;;;;;;;24.73;8.18;;;16.80;93.30;;;;;;5001527;28;20057;-57
2022/05/15 11:57:13;;;;;;;21.48;9.30;;;16.70;93.60;;;;;;5011747;28;20034;-57
2022/05/15 11:59:54;;;;;;;19.08;8.90;;;16.70;94.00;;;;;;5010457;28;20079;-57
2022/05/15 12:02:29;;;;;;;18.00;8.65;;;16.60;93.60;;;;;;4996555;28;20023;-58
2022/05/15 12:04:55;;;;;;;18.83;8.88;;;16.60;93.80;;;;;;5004356;28;20073;-58
2022/05/15 12:07:30;;;;;;;21.35;8.15;;;16.60;92.80;;;;;;4994104;28;20027;-57
2022/05/15 12:09:56;;;;;;;24.38;8.57;;;16.70;92.80;;;;;;5006190;28;20054;-58
2022/05/15 12:15:20;;;;;;;16.05;8.40;;;17.00;92.60;;;;;;5012123;28;20034;-57
2022/05/15 12:17:49;;;;;;;20.88;8.65;;;17.10;92.70;;;;;;5011907;28;20034;-57
2022/05/15 12:20:19;;;;;;;15.30;7.90;;;17.20;92.60;;;;;;5010839;28;20025;-57
2022/05/15 12:22:53;;;;;;;23.83;9.20;;;17.20;92.50;;;;;;4992472;28;20485;-57
2022/05/15 12:25:25;;;;;;;21.30;8.85;;;17.40;92.80;;;;;;5011620;28;20026;-57
2022/05/15 12:31:16;;;;;;;14.95;7.95;;;17.90;92.20;;;;;;5003328;28;20048;-56
2022/05/15 12:33:44;;;;;;;19.55;9.23;;;18.20;91.80;;;;;;5001334;28;20046;-58
2022/05/15 12:36:15;;;;;;;14.32;8.07;;;18.30;90.90;;;;;;5011258;28;20029;-55
2022/05/15 12:38:47;;;;;;;13.27;6.80;;;18.40;89.70;;;;;;5009762;28;20454;-57
2022/05/15 12:41:24;;;;;;;17.55;7.93;;;18.50;88.30;;;;;;5001766;28;20030;-58
2022/05/15 12:43:51;;;;;;;14.68;7.57;;;18.40;89.50;;;;;;5011164;28;20050;-55
2022/05/15 12:46:29;;;;;;;16.98;7.80;;;18.50;88.90;;;;;;5011285;28;20494;-57
2022/05/15 12:48:55;;;;;;;17.95;7.68;;;18.40;88.80;;;;;;5011371;28;20049;-57
2022/05/15 12:51:28;;;;;;;14.43;7.00;;;18.30;87.30;;;;;;5000399;28;20489;-56
2022/05/15 12:53:55;;;;;;;16.48;8.20;;;18.20;87.60;;;;;;5004177;28;20033;-56
2022/05/15 12:56:36;;;;;;;17.92;8.15;;;18.00;90.30;;;;;;5009385;28;20032;-58
2022/05/15 12:59:18;;;;;;;13.60;7.28;;;18.00;90.60;;;;;;5011112;28;20022;-55
2022/05/15 13:01:46;;;;;;;15.35;7.95;;;17.90;90.30;;;;;;5001025;28;20034;-56
2022/05/15 13:04:20;;;;;;;16.02;8.05;;;18.00;90.80;;;;;;5010808;28;20049;-57
2022/05/15 13:06:55;;;;;;;15.75;7.70;;;18.00;90.80;;;;;;5009476;28;20030;-55
2022/05/15 13:09:27;;;;;;;14.98;8.45;;;18.10;90.30;;;;;;5008055;28;20038;-58
2022/05/15 13:12:00;;;;;;;15.30;7.60;;;18.30;88.90;;;;;;5010478;28;20080;-59
2022/05/15 13:14:45;;;;;;;16.17;7.72;;;18.30;87.40;;;;;;5009177;28;20041;-57
2022/05/15 13:17:12;;;;;;;17.15;8.38;;;18.50;87.90;;;;;;5010972;28;20506;-58
2022/05/15 13:19:47;;;;;;;16.85;7.82;;;18.70;88.50;;;;;;5008140;28;20044;-58
2022/05/15 13:22:21;;;;;;;21.52;8.27;;;18.70;89.60;;;;;;4998089;28;20392;-57
2022/05/15 13:24:48;;;;;;;16.25;8.15;;;18.70;90.40;;;;;;5009422;28;20434;-57